sensor_id;sensor_type;location;lat;lon;timestamp;temperature;humidity
21115;DHT22;10715;48.546;9.896;2023-12-20T00:00:54;2.20;99.90
21115;DHT22;10715;48.546;9.896;2023-12-20T00:03:19;2.20;99.90
21115;DHT22;10715;48.546;9.896;2023-12-20T00:05:45;2.20;99.90
21115;DHT22;10715;48.546;9.896;2023-12-20T00:08:11;2.20;99.90
21115;DHT22;10715;48.546;9.896;2023-12-20T00:10:37;2.20;99.90
21115;DHT22;10715;48.546;9.896;2023-12-20T00:13:03;2.20;99.90
21115;DHT22;10715;48.546;9.896;2023-12-20T00:15:28;2.20;99.90
21115;DHT22;10715;48.546;9.896;2023-12-20T00:17:54;2.20;99.90
21115;DHT22;10715;48.546;9.896;2023-12-20T00:20:20;2.30;99.90
21115;DHT22;10715;48.546;9.896;2023-12-20T00:22:45;2.30;99.90
21115;DHT22;10715;48.546;9.896;2023-12-20T00:25:11;2.30;99.90
21115;DHT22;10715;48.546;9.896;2023-12-20T00:27:37;2.40;99.90
21115;DHT22;10715;48.546;9.896;2023-12-20T00:30:03;2.40;99.90
21115;DHT22;10715;48.546;9.896;2023-12-20T00:32:29;2.50;99.90
21115;DHT22;10715;48.546;9.896;2023-12-20T00:34:54;2.50;99.90
21115;DHT22;10715;48.546;9.896;2023-12-20T00:37:20;2.60;99.90
21115;DHT22;10715;48.546;9.896;2023-12-20T00:39:46;2.70;99.90
21115;DHT22;10715;48.546;9.896;2023-12-20T00:42:11;2.70;99.90
21115;DHT22;10715;48.546;9.896;2023-12-20T00:44:37;2.80;99.90
21115;DHT22;10715;48.546;9.896;2023-12-20T00:47:03;2.80;99.90
21115;DHT22;10715;48.546;9.896;2023-12-20T00:49:29;2.80;99.90
21115;DHT22;10715;48.546;9.896;2023-12-20T00:51:54;2.90;99.90
21115;DHT22;10715;48.546;9.896;2023-12-20T00:54:20;2.90;99.90
21115;DHT22;10715;48.546;9.896;2023-12-20T00:56:45;2.90;99.90
21115;DHT22;10715;48.546;9.896;2023-12-20T00:59:11;2.90;99.90
21115;DHT22;10715;48.546;9.896;2023-12-20T01:01:37;2.90;99.90
21115;DHT22;10715;48.546;9.896;2023-12-20T01:04:03;2.90;99.90
21115;DHT22;10715;48.546;9.896;2023-12-20T01:06:29;2.90;99.90
21115;DHT22;10715;48.546;9.896;2023-12-20T01:08:55;2.90;99.90
21115;DHT22;10715;48.546;9.896;2023-12-20T01:11:20;2.90;99.90
21115;DHT22;10715;48.546;9.896;2023-12-20T01:13:46;3.00;99.90
21115;DHT22;10715;48.546;9.896;2023-12-20T01:16:12;3.00;99.90
21115;DHT22;10715;48.546;9.896;2023-12-20T01:18:38;3.00;99.90
21115;DHT22;10715;48.546;9.896;2023-12-20T01:21:04;3.00;99.90
21115;DHT22;10715;48.546;9.896;2023-12-20T01:23:30;3.00;99.90
21115;DHT22;10715;48.546;9.896;2023-12-20T01:25:56;3.10;99.90
21115;DHT22;10715;48.546;9.896;2023-12-20T01:28:22;3.10;99.90
21115;DHT22;10715;48.546;9.896;2023-12-20T01:30:48;3.00;99.90
21115;DHT22;10715;48.546;9.896;2023-12-20T01:33:13;3.10;99.90
21115;DHT22;10715;48.546;9.896;2023-12-20T01:35:39;3.10;99.90
21115;DHT22;10715;48.546;9.896;2023-12-20T01:38:05;3.10;99.90
21115;DHT22;10715;48.546;9.896;2023-12-20T01:40:30;3.10;99.90
21115;DHT22;10715;48.546;9.896;2023-12-20T01:43:01;3.10;99.90
21115;DHT22;10715;48.546;9.896;2023-12-20T01:45:27;3.10;99.90
21115;DHT22;10715;48.546;9.896;2023-12-20T01:47:54;3.10;99.90
21115;DHT22;10715;48.546;9.896;2023-12-20T01:50:21;3.10;99.90
21115;DHT22;10715;48.546;9.896;2023-12-20T01:52:47;3.10;99.90
21115;DHT22;10715;48.546;9.896;2023-12-20T01:55:13;3.10;99.90
21115;DHT22;10715;48.546;9.896;2023-12-20T01:57:44;3.10;99.90
21115;DHT22;10715;48.546;9.896;2023-12-20T02:00:11;3.10;99.90
21115;DHT22;10715;48.546;9.896;2023-12-20T02:02:39;3.10;99.90
21115;DHT22;10715;48.546;9.896;2023-12-20T02:05:09;3.20;99.90
21115;DHT22;10715;48.546;9.896;2023-12-20T02:07:35;3.20;99.90
21115;DHT22;10715;48.546;9.896;2023-12-20T02:10:01;3.20;99.90
21115;DHT22;10715;48.546;9.896;2023-12-20T02:12:27;3.20;99.90
21115;DHT22;10715;48.546;9.896;2023-12-20T02:14:53;3.20;99.90
21115;DHT22;10715;48.546;9.896;2023-12-20T02:17:20;3.10;99.90
21115;DHT22;10715;48.546;9.896;2023-12-20T02:19:45;3.10;99.90
21115;DHT22;10715;48.546;9.896;2023-12-20T02:22:12;3.10;99.90
21115;DHT22;10715;48.546;9.896;2023-12-20T02:24:38;3.10;99.90
21115;DHT22;10715;48.546;9.896;2023-12-20T02:27:05;3.10;99.90
21115;DHT22;10715;48.546;9.896;2023-12-20T02:29:31;3.10;99.90
21115;DHT22;10715;48.546;9.896;2023-12-20T02:31:57;3.10;99.90
21115;DHT22;10715;48.546;9.896;2023-12-20T02:34:23;3.10;99.90
21115;DHT22;10715;48.546;9.896;2023-12-20T02:36:48;3.10;99.90
21115;DHT22;10715;48.546;9.896;2023-12-20T02:39:14;3.10;99.90
21115;DHT22;10715;48.546;9.896;2023-12-20T02:41:40;3.10;99.90
21115;DHT22;10715;48.546;9.896;2023-12-20T02:44:05;3.10;99.90
21115;DHT22;10715;48.546;9.896;2023-12-20T02:46:31;3.00;99.90
21115;DHT22;10715;48.546;9.896;2023-12-20T02:48:57;3.10;99.90
21115;DHT22;10715;48.546;9.896;2023-12-20T02:51:22;3.00;99.90
21115;DHT22;10715;48.546;9.896;2023-12-20T02:53:48;3.10;99.90
21115;DHT22;10715;48.546;9.896;2023-12-20T02:56:14;3.10;99.90
21115;DHT22;10715;48.546;9.896;2023-12-20T02:58:40;3.10;99.90
21115;DHT22;10715;48.546;9.896;2023-12-20T03:01:05;3.10;99.90
21115;DHT22;10715;48.546;9.896;2023-12-20T03:03:31;3.10;99.90
21115;DHT22;10715;48.546;9.896;2023-12-20T03:05:57;3.10;99.90
21115;DHT22;10715;48.546;9.896;2023-12-20T03:08:23;3.10;99.90
21115;DHT22;10715;48.546;9.896;2023-12-20T03:10:48;3.10;99.90
21115;DHT22;10715;48.546;9.896;2023-12-20T03:13:14;3.20;99.90
21115;DHT22;10715;48.546;9.896;2023-12-20T03:15:40;3.20;99.90
21115;DHT22;10715;48.546;9.896;2023-12-20T03:18:06;3.20;99.90
21115;DHT22;10715;48.546;9.896;2023-12-20T03:20:32;3.20;99.90
21115;DHT22;10715;48.546;9.896;2023-12-20T03:23:00;3.20;99.90
21115;DHT22;10715;48.546;9.896;2023-12-20T03:25:26;3.20;99.90
21115;DHT22;10715;48.546;9.896;2023-12-20T03:27:52;3.20;99.90
21115;DHT22;10715;48.546;9.896;2023-12-20T03:30:19;3.20;99.90
21115;DHT22;10715;48.546;9.896;2023-12-20T03:32:45;3.20;99.90
21115;DHT22;10715;48.546;9.896;2023-12-20T03:35:11;3.30;99.90
21115;DHT22;10715;48.546;9.896;2023-12-20T03:37:37;3.30;99.90
21115;DHT22;10715;48.546;9.896;2023-12-20T03:40:03;3.30;99.90
21115;DHT22;10715;48.546;9.896;2023-12-20T03:42:29;3.20;99.90
21115;DHT22;10715;48.546;9.896;2023-12-20T03:44:54;3.20;99.90
21115;DHT22;10715;48.546;9.896;2023-12-20T03:47:20;3.30;99.90
21115;DHT22;10715;48.546;9.896;2023-12-20T03:49:46;3.30;99.90
21115;DHT22;10715;48.546;9.896;2023-12-20T03:52:12;3.30;99.90
21115;DHT22;10715;48.546;9.896;2023-12-20T03:54:38;3.20;99.90
21115;DHT22;10715;48.546;9.896;2023-12-20T03:57:04;3.30;99.90
21115;DHT22;10715;48.546;9.896;2023-12-20T03:59:30;3.30;99.90
21115;DHT22;10715;48.546;9.896;2023-12-20T04:01:59;3.30;99.90
21115;DHT22;10715;48.546;9.896;2023-12-20T04:04:25;3.30;99.90
21115;DHT22;10715;48.546;9.896;2023-12-20T04:06:51;3.30;99.90
21115;DHT22;10715;48.546;9.896;2023-12-20T04:09:17;3.30;99.90
21115;DHT22;10715;48.546;9.896;2023-12-20T04:11:42;3.30;99.90
21115;DHT22;10715;48.546;9.896;2023-12-20T04:14:08;3.30;99.90
21115;DHT22;10715;48.546;9.896;2023-12-20T04:16:34;3.30;99.90
21115;DHT22;10715;48.546;9.896;2023-12-20T04:19:00;3.30;99.90
21115;DHT22;10715;48.546;9.896;2023-12-20T04:21:26;3.30;99.90
21115;DHT22;10715;48.546;9.896;2023-12-20T04:23:52;3.30;99.90
21115;DHT22;10715;48.546;9.896;2023-12-20T04:26:17;3.30;99.90
21115;DHT22;10715;48.546;9.896;2023-12-20T04:28:43;3.30;99.90
21115;DHT22;10715;48.546;9.896;2023-12-20T04:31:09;3.30;99.90
21115;DHT22;10715;48.546;9.896;2023-12-20T04:33:34;3.30;99.90
21115;DHT22;10715;48.546;9.896;2023-12-20T04:36:00;3.30;99.90
21115;DHT22;10715;48.546;9.896;2023-12-20T04:38:26;3.20;99.90
21115;DHT22;10715;48.546;9.896;2023-12-20T04:40:51;3.30;99.90
21115;DHT22;10715;48.546;9.896;2023-12-20T04:43:17;3.30;99.90
21115;DHT22;10715;48.546;9.896;2023-12-20T04:45:43;3.20;99.90
21115;DHT22;10715;48.546;9.896;2023-12-20T04:48:09;3.20;99.90
21115;DHT22;10715;48.546;9.896;2023-12-20T04:50:35;3.20;99.90
21115;DHT22;10715;48.546;9.896;2023-12-20T04:53:01;3.20;99.90
21115;DHT22;10715;48.546;9.896;2023-12-20T04:55:26;3.20;99.90
21115;DHT22;10715;48.546;9.896;2023-12-20T04:57:52;3.20;99.90
21115;DHT22;10715;48.546;9.896;2023-12-20T05:00:18;3.20;99.90
21115;DHT22;10715;48.546;9.896;2023-12-20T05:02:43;3.20;99.90
21115;DHT22;10715;48.546;9.896;2023-12-20T05:05:09;3.10;99.90
21115;DHT22;10715;48.546;9.896;2023-12-20T05:07:35;3.10;99.90
21115;DHT22;10715;48.546;9.896;2023-12-20T05:10:01;3.10;99.90
21115;DHT22;10715;48.546;9.896;2023-12-20T05:12:26;3.10;99.90
21115;DHT22;10715;48.546;9.896;2023-12-20T05:14:52;3.10;99.90
21115;DHT22;10715;48.546;9.896;2023-12-20T05:17:18;3.10;99.90
21115;DHT22;10715;48.546;9.896;2023-12-20T05:19:45;3.10;99.90
21115;DHT22;10715;48.546;9.896;2023-12-20T05:22:11;3.10;99.90
21115;DHT22;10715;48.546;9.896;2023-12-20T05:24:37;3.10;99.90
21115;DHT22;10715;48.546;9.896;2023-12-20T05:27:03;3.10;99.90
21115;DHT22;10715;48.546;9.896;2023-12-20T05:29:28;3.10;99.90
21115;DHT22;10715;48.546;9.896;2023-12-20T05:31:54;3.00;99.90
21115;DHT22;10715;48.546;9.896;2023-12-20T05:34:20;3.00;99.90
21115;DHT22;10715;48.546;9.896;2023-12-20T05:36:46;3.00;99.90
21115;DHT22;10715;48.546;9.896;2023-12-20T05:39:11;3.00;99.90
21115;DHT22;10715;48.546;9.896;2023-12-20T05:41:37;3.00;99.90
21115;DHT22;10715;48.546;9.896;2023-12-20T05:44:03;3.00;99.90
21115;DHT22;10715;48.546;9.896;2023-12-20T05:46:28;3.00;99.90
21115;DHT22;10715;48.546;9.896;2023-12-20T05:48:54;3.00;99.90
21115;DHT22;10715;48.546;9.896;2023-12-20T05:51:20;3.00;99.90
21115;DHT22;10715;48.546;9.896;2023-12-20T05:53:46;3.00;99.90
21115;DHT22;10715;48.546;9.896;2023-12-20T05:56:11;3.00;99.90
21115;DHT22;10715;48.546;9.896;2023-12-20T05:58:38;3.00;99.90
21115;DHT22;10715;48.546;9.896;2023-12-20T06:01:04;3.00;99.90
21115;DHT22;10715;48.546;9.896;2023-12-20T06:03:30;3.00;99.90
21115;DHT22;10715;48.546;9.896;2023-12-20T06:05:56;3.00;99.90
21115;DHT22;10715;48.546;9.896;2023-12-20T06:08:22;3.00;99.90
21115;DHT22;10715;48.546;9.896;2023-12-20T06:10:48;3.00;99.90
21115;DHT22;10715;48.546;9.896;2023-12-20T06:13:14;3.00;99.90
21115;DHT22;10715;48.546;9.896;2023-12-20T06:15:40;3.00;99.90
21115;DHT22;10715;48.546;9.896;2023-12-20T06:18:06;3.00;99.90
21115;DHT22;10715;48.546;9.896;2023-12-20T06:20:32;3.00;99.90
21115;DHT22;10715;48.546;9.896;2023-12-20T06:22:58;3.00;99.90
21115;DHT22;10715;48.546;9.896;2023-12-20T06:25:24;3.00;99.90
21115;DHT22;10715;48.546;9.896;2023-12-20T06:27:50;3.00;99.90
21115;DHT22;10715;48.546;9.896;2023-12-20T06:30:16;3.00;99.90
21115;DHT22;10715;48.546;9.896;2023-12-20T06:32:42;3.00;99.90
21115;DHT22;10715;48.546;9.896;2023-12-20T06:35:08;3.00;99.90
21115;DHT22;10715;48.546;9.896;2023-12-20T06:37:34;3.00;99.90
21115;DHT22;10715;48.546;9.896;2023-12-20T06:40:00;3.00;99.90
21115;DHT22;10715;48.546;9.896;2023-12-20T06:42:26;3.00;99.90
21115;DHT22;10715;48.546;9.896;2023-12-20T06:44:52;3.00;99.90
21115;DHT22;10715;48.546;9.896;2023-12-20T06:47:18;3.00;99.90
21115;DHT22;10715;48.546;9.896;2023-12-20T06:49:43;3.00;99.90
21115;DHT22;10715;48.546;9.896;2023-12-20T06:52:09;3.00;99.90
21115;DHT22;10715;48.546;9.896;2023-12-20T06:54:35;3.00;99.90
21115;DHT22;10715;48.546;9.896;2023-12-20T06:57:01;3.00;99.90
21115;DHT22;10715;48.546;9.896;2023-12-20T06:59:29;3.00;99.90
21115;DHT22;10715;48.546;9.896;2023-12-20T07:01:55;3.00;99.90
21115;DHT22;10715;48.546;9.896;2023-12-20T07:04:21;3.00;99.90
21115;DHT22;10715;48.546;9.896;2023-12-20T07:06:50;3.00;99.90
21115;DHT22;10715;48.546;9.896;2023-12-20T07:09:22;3.00;99.90
21115;DHT22;10715;48.546;9.896;2023-12-20T07:11:48;3.00;99.90
21115;DHT22;10715;48.546;9.896;2023-12-20T07:14:14;3.00;99.90
21115;DHT22;10715;48.546;9.896;2023-12-20T07:16:40;3.00;99.90
21115;DHT22;10715;48.546;9.896;2023-12-20T07:19:06;3.00;99.90
21115;DHT22;10715;48.546;9.896;2023-12-20T07:21:31;3.00;99.90
21115;DHT22;10715;48.546;9.896;2023-12-20T07:23:57;3.10;99.90
21115;DHT22;10715;48.546;9.896;2023-12-20T07:26:23;3.10;99.90
21115;DHT22;10715;48.546;9.896;2023-12-20T07:28:49;3.10;99.90
21115;DHT22;10715;48.546;9.896;2023-12-20T07:31:18;3.10;99.90
21115;DHT22;10715;48.546;9.896;2023-12-20T07:33:44;3.10;99.90
21115;DHT22;10715;48.546;9.896;2023-12-20T07:36:10;3.10;99.90
21115;DHT22;10715;48.546;9.896;2023-12-20T07:38:35;3.10;99.90
21115;DHT22;10715;48.546;9.896;2023-12-20T07:41:01;3.10;99.90
21115;DHT22;10715;48.546;9.896;2023-12-20T07:43:27;3.20;99.90
21115;DHT22;10715;48.546;9.896;2023-12-20T07:45:52;3.20;99.90
21115;DHT22;10715;48.546;9.896;2023-12-20T07:48:18;3.20;99.90
21115;DHT22;10715;48.546;9.896;2023-12-20T07:50:44;3.20;99.90
21115;DHT22;10715;48.546;9.896;2023-12-20T07:53:10;3.20;99.90
21115;DHT22;10715;48.546;9.896;2023-12-20T07:55:35;3.20;99.90
21115;DHT22;10715;48.546;9.896;2023-12-20T07:58:01;3.20;99.90
21115;DHT22;10715;48.546;9.896;2023-12-20T08:00:27;3.20;99.90
21115;DHT22;10715;48.546;9.896;2023-12-20T08:02:53;3.20;99.90
21115;DHT22;10715;48.546;9.896;2023-12-20T08:05:19;3.20;99.90
21115;DHT22;10715;48.546;9.896;2023-12-20T08:07:45;3.20;99.90
21115;DHT22;10715;48.546;9.896;2023-12-20T08:10:10;3.30;99.90
21115;DHT22;10715;48.546;9.896;2023-12-20T08:12:36;3.30;99.90
21115;DHT22;10715;48.546;9.896;2023-12-20T08:15:02;3.30;99.90
21115;DHT22;10715;48.546;9.896;2023-12-20T08:17:29;3.30;99.90
21115;DHT22;10715;48.546;9.896;2023-12-20T08:19:55;3.30;99.90
21115;DHT22;10715;48.546;9.896;2023-12-20T08:22:21;3.30;99.90
21115;DHT22;10715;48.546;9.896;2023-12-20T08:24:46;3.30;99.90
21115;DHT22;10715;48.546;9.896;2023-12-20T08:27:12;3.30;99.90
21115;DHT22;10715;48.546;9.896;2023-12-20T08:29:38;3.40;99.90
21115;DHT22;10715;48.546;9.896;2023-12-20T08:32:04;3.40;99.90
21115;DHT22;10715;48.546;9.896;2023-12-20T08:34:30;3.40;99.90
21115;DHT22;10715;48.546;9.896;2023-12-20T08:36:55;3.40;99.90
21115;DHT22;10715;48.546;9.896;2023-12-20T08:39:21;3.40;99.90
21115;DHT22;10715;48.546;9.896;2023-12-20T08:41:47;3.40;99.90
21115;DHT22;10715;48.546;9.896;2023-12-20T08:44:12;3.40;99.90
21115;DHT22;10715;48.546;9.896;2023-12-20T08:46:38;3.50;99.90
21115;DHT22;10715;48.546;9.896;2023-12-20T08:49:04;3.50;99.90
21115;DHT22;10715;48.546;9.896;2023-12-20T08:51:30;3.50;99.90
21115;DHT22;10715;48.546;9.896;2023-12-20T08:53:56;3.50;99.90
21115;DHT22;10715;48.546;9.896;2023-12-20T08:56:21;3.50;99.90
21115;DHT22;10715;48.546;9.896;2023-12-20T08:58:47;3.50;99.90
21115;DHT22;10715;48.546;9.896;2023-12-20T09:01:14;3.60;99.90
21115;DHT22;10715;48.546;9.896;2023-12-20T09:03:40;3.60;99.90
21115;DHT22;10715;48.546;9.896;2023-12-20T09:06:06;3.60;99.90
21115;DHT22;10715;48.546;9.896;2023-12-20T09:08:31;3.60;99.90
21115;DHT22;10715;48.546;9.896;2023-12-20T09:10:57;3.60;99.90
21115;DHT22;10715;48.546;9.896;2023-12-20T09:13:23;3.60;99.90
21115;DHT22;10715;48.546;9.896;2023-12-20T09:15:55;3.60;99.90
21115;DHT22;10715;48.546;9.896;2023-12-20T09:18:21;3.60;99.90
21115;DHT22;10715;48.546;9.896;2023-12-20T09:20:46;3.60;99.90
21115;DHT22;10715;48.546;9.896;2023-12-20T09:23:12;3.60;99.90
21115;DHT22;10715;48.546;9.896;2023-12-20T09:25:38;3.60;99.90
21115;DHT22;10715;48.546;9.896;2023-12-20T09:28:04;3.50;99.90
21115;DHT22;10715;48.546;9.896;2023-12-20T09:30:29;3.50;99.90
21115;DHT22;10715;48.546;9.896;2023-12-20T09:32:55;3.50;99.90
21115;DHT22;10715;48.546;9.896;2023-12-20T09:35:22;3.50;99.90
21115;DHT22;10715;48.546;9.896;2023-12-20T09:37:47;3.50;99.90
21115;DHT22;10715;48.546;9.896;2023-12-20T09:40:13;3.40;99.90
21115;DHT22;10715;48.546;9.896;2023-12-20T09:43:08;3.40;99.90
21115;DHT22;10715;48.546;9.896;2023-12-20T09:45:35;3.40;99.90
21115;DHT22;10715;48.546;9.896;2023-12-20T09:48:03;3.30;99.90
21115;DHT22;10715;48.546;9.896;2023-12-20T09:50:30;3.30;99.90
21115;DHT22;10715;48.546;9.896;2023-12-20T09:52:58;3.30;99.90
21115;DHT22;10715;48.546;9.896;2023-12-20T09:55:25;3.30;99.90
21115;DHT22;10715;48.546;9.896;2023-12-20T09:57:51;3.30;99.90
21115;DHT22;10715;48.546;9.896;2023-12-20T10:00:16;3.20;99.90
21115;DHT22;10715;48.546;9.896;2023-12-20T10:05:17;3.20;99.90
21115;DHT22;10715;48.546;9.896;2023-12-20T10:07:46;3.20;99.90
21115;DHT22;10715;48.546;9.896;2023-12-20T10:10:13;3.20;99.90
21115;DHT22;10715;48.546;9.896;2023-12-20T10:12:39;3.20;99.90
21115;DHT22;10715;48.546;9.896;2023-12-20T10:15:06;3.20;99.90
21115;DHT22;10715;48.546;9.896;2023-12-20T10:17:31;3.20;99.90
21115;DHT22;10715;48.546;9.896;2023-12-20T10:19:58;3.20;99.90
21115;DHT22;10715;48.546;9.896;2023-12-20T10:22:24;3.10;99.90
21115;DHT22;10715;48.546;9.896;2023-12-20T10:24:49;3.10;99.90
21115;DHT22;10715;48.546;9.896;2023-12-20T10:27:18;3.10;99.90
21115;DHT22;10715;48.546;9.896;2023-12-20T10:29:45;3.10;99.90
21115;DHT22;10715;48.546;9.896;2023-12-20T10:32:25;3.00;99.90
21115;DHT22;10715;48.546;9.896;2023-12-20T10:34:52;3.00;99.90
21115;DHT22;10715;48.546;9.896;2023-12-20T10:37:18;3.00;99.90
21115;DHT22;10715;48.546;9.896;2023-12-20T10:39:43;3.00;99.90
21115;DHT22;10715;48.546;9.896;2023-12-20T10:42:12;3.00;99.90
21115;DHT22;10715;48.546;9.896;2023-12-20T10:44:38;2.90;99.90
21115;DHT22;10715;48.546;9.896;2023-12-20T10:47:05;2.90;99.90
21115;DHT22;10715;48.546;9.896;2023-12-20T10:49:34;2.90;99.90
21115;DHT22;10715;48.546;9.896;2023-12-20T10:52:02;2.90;99.90
21115;DHT22;10715;48.546;9.896;2023-12-20T10:54:29;2.80;99.90
21115;DHT22;10715;48.546;9.896;2023-12-20T10:56:57;2.80;99.90
21115;DHT22;10715;48.546;9.896;2023-12-20T10:59:24;2.80;99.90
21115;DHT22;10715;48.546;9.896;2023-12-20T11:01:51;2.80;99.90
21115;DHT22;10715;48.546;9.896;2023-12-20T11:04:28;2.80;99.90
21115;DHT22;10715;48.546;9.896;2023-12-20T11:07:13;2.80;99.90
21115;DHT22;10715;48.546;9.896;2023-12-20T11:09:49;2.70;99.90
21115;DHT22;10715;48.546;9.896;2023-12-20T11:12:35;2.70;99.90
21115;DHT22;10715;48.546;9.896;2023-12-20T11:15:02;2.80;99.90
21115;DHT22;10715;48.546;9.896;2023-12-20T11:17:29;2.80;99.90
21115;DHT22;10715;48.546;9.896;2023-12-20T11:22:26;2.80;99.90
21115;DHT22;10715;48.546;9.896;2023-12-20T11:24:53;2.80;99.90
21115;DHT22;10715;48.546;9.896;2023-12-20T11:27:21;2.80;99.90
21115;DHT22;10715;48.546;9.896;2023-12-20T11:29:56;2.80;99.90
21115;DHT22;10715;48.546;9.896;2023-12-20T11:34:56;2.90;99.90
21115;DHT22;10715;48.546;9.896;2023-12-20T11:37:22;2.90;99.90
21115;DHT22;10715;48.546;9.896;2023-12-20T11:39:55;2.90;99.90
21115;DHT22;10715;48.546;9.896;2023-12-20T11:42:22;2.90;99.90
21115;DHT22;10715;48.546;9.896;2023-12-20T11:44:47;2.90;99.90
21115;DHT22;10715;48.546;9.896;2023-12-20T11:47:13;2.90;99.90
21115;DHT22;10715;48.546;9.896;2023-12-20T11:49:41;2.90;99.90
21115;DHT22;10715;48.546;9.896;2023-12-20T11:52:06;2.90;99.90
21115;DHT22;10715;48.546;9.896;2023-12-20T11:54:32;2.90;99.90
21115;DHT22;10715;48.546;9.896;2023-12-20T11:56:58;2.90;99.90
21115;DHT22;10715;48.546;9.896;2023-12-20T11:59:24;2.90;99.90
21115;DHT22;10715;48.546;9.896;2023-12-20T12:01:50;2.90;99.90
21115;DHT22;10715;48.546;9.896;2023-12-20T12:04:16;2.90;99.90
21115;DHT22;10715;48.546;9.896;2023-12-20T12:06:44;2.90;99.90
21115;DHT22;10715;48.546;9.896;2023-12-20T12:09:10;2.90;99.90
21115;DHT22;10715;48.546;9.896;2023-12-20T12:11:36;2.90;99.90
21115;DHT22;10715;48.546;9.896;2023-12-20T12:14:02;2.90;99.90
21115;DHT22;10715;48.546;9.896;2023-12-20T12:16:27;2.90;99.90
21115;DHT22;10715;48.546;9.896;2023-12-20T12:18:57;2.90;99.90
21115;DHT22;10715;48.546;9.896;2023-12-20T12:21:23;2.90;99.90
21115;DHT22;10715;48.546;9.896;2023-12-20T12:23:49;3.00;99.90
21115;DHT22;10715;48.546;9.896;2023-12-20T12:26:15;3.00;99.90
21115;DHT22;10715;48.546;9.896;2023-12-20T12:28:41;3.00;99.90
21115;DHT22;10715;48.546;9.896;2023-12-20T12:31:08;3.00;99.90
21115;DHT22;10715;48.546;9.896;2023-12-20T12:33:34;3.00;99.90
21115;DHT22;10715;48.546;9.896;2023-12-20T12:36:01;3.00;99.90
21115;DHT22;10715;48.546;9.896;2023-12-20T12:38:27;3.10;99.90
21115;DHT22;10715;48.546;9.896;2023-12-20T12:40:54;3.10;99.90
21115;DHT22;10715;48.546;9.896;2023-12-20T12:43:20;3.10;99.90
21115;DHT22;10715;48.546;9.896;2023-12-20T12:45:48;3.10;99.90
21115;DHT22;10715;48.546;9.896;2023-12-20T12:48:14;3.10;99.90
21115;DHT22;10715;48.546;9.896;2023-12-20T12:50:40;3.10;99.90
21115;DHT22;10715;48.546;9.896;2023-12-20T12:53:05;3.10;99.90
21115;DHT22;10715;48.546;9.896;2023-12-20T12:55:31;3.10;99.90
21115;DHT22;10715;48.546;9.896;2023-12-20T12:57:57;3.10;99.90
21115;DHT22;10715;48.546;9.896;2023-12-20T13:00:23;3.10;99.90
21115;DHT22;10715;48.546;9.896;2023-12-20T13:02:49;3.10;99.90
21115;DHT22;10715;48.546;9.896;2023-12-20T13:05:15;3.20;99.90
21115;DHT22;10715;48.546;9.896;2023-12-20T13:07:41;3.20;99.90
21115;DHT22;10715;48.546;9.896;2023-12-20T13:10:10;3.20;99.90
21115;DHT22;10715;48.546;9.896;2023-12-20T13:12:36;3.20;99.90
21115;DHT22;10715;48.546;9.896;2023-12-20T13:15:03;3.20;99.90
21115;DHT22;10715;48.546;9.896;2023-12-20T13:17:31;3.10;99.90
21115;DHT22;10715;48.546;9.896;2023-12-20T13:19:57;3.10;99.90
21115;DHT22;10715;48.546;9.896;2023-12-20T13:22:23;3.10;99.90
21115;DHT22;10715;48.546;9.896;2023-12-20T13:24:49;3.10;99.90
21115;DHT22;10715;48.546;9.896;2023-12-20T13:27:14;3.10;99.90
21115;DHT22;10715;48.546;9.896;2023-12-20T13:29:40;3.10;99.90
21115;DHT22;10715;48.546;9.896;2023-12-20T13:32:06;3.10;99.90
21115;DHT22;10715;48.546;9.896;2023-12-20T13:34:32;3.10;99.90
21115;DHT22;10715;48.546;9.896;2023-12-20T13:36:58;3.10;99.90
21115;DHT22;10715;48.546;9.896;2023-12-20T13:39:23;3.10;99.90
21115;DHT22;10715;48.546;9.896;2023-12-20T13:41:49;3.10;99.90
21115;DHT22;10715;48.546;9.896;2023-12-20T13:44:15;3.10;99.90
21115;DHT22;10715;48.546;9.896;2023-12-20T13:46:41;3.00;99.90
21115;DHT22;10715;48.546;9.896;2023-12-20T13:49:07;3.00;99.90
21115;DHT22;10715;48.546;9.896;2023-12-20T13:51:32;3.00;99.90
21115;DHT22;10715;48.546;9.896;2023-12-20T13:53:58;3.00;99.90
21115;DHT22;10715;48.546;9.896;2023-12-20T13:56:25;3.00;99.90
21115;DHT22;10715;48.546;9.896;2023-12-20T13:58:51;2.90;99.90
21115;DHT22;10715;48.546;9.896;2023-12-20T14:01:17;3.00;99.90
21115;DHT22;10715;48.546;9.896;2023-12-20T14:03:42;2.90;99.90
21115;DHT22;10715;48.546;9.896;2023-12-20T14:06:08;3.00;99.90
21115;DHT22;10715;48.546;9.896;2023-12-20T14:08:34;3.00;99.90
21115;DHT22;10715;48.546;9.896;2023-12-20T14:11:01;3.00;99.90
21115;DHT22;10715;48.546;9.896;2023-12-20T14:13:27;3.00;99.90
21115;DHT22;10715;48.546;9.896;2023-12-20T14:15:53;2.90;99.90
21115;DHT22;10715;48.546;9.896;2023-12-20T14:18:20;3.00;99.90
21115;DHT22;10715;48.546;9.896;2023-12-20T14:20:48;2.90;99.90
21115;DHT22;10715;48.546;9.896;2023-12-20T14:23:13;2.90;99.90
21115;DHT22;10715;48.546;9.896;2023-12-20T14:25:42;2.90;99.90
21115;DHT22;10715;48.546;9.896;2023-12-20T14:28:08;2.90;99.90
21115;DHT22;10715;48.546;9.896;2023-12-20T14:30:33;2.90;99.90
21115;DHT22;10715;48.546;9.896;2023-12-20T14:33:00;2.90;99.90
21115;DHT22;10715;48.546;9.896;2023-12-20T14:35:26;2.90;99.90
21115;DHT22;10715;48.546;9.896;2023-12-20T14:37:51;2.90;99.90
21115;DHT22;10715;48.546;9.896;2023-12-20T14:40:17;2.90;99.90
21115;DHT22;10715;48.546;9.896;2023-12-20T14:42:44;2.90;99.90
21115;DHT22;10715;48.546;9.896;2023-12-20T14:45:10;2.90;99.90
21115;DHT22;10715;48.546;9.896;2023-12-20T14:47:36;2.90;99.90
21115;DHT22;10715;48.546;9.896;2023-12-20T14:50:06;2.90;99.90
21115;DHT22;10715;48.546;9.896;2023-12-20T14:52:33;2.90;99.90
21115;DHT22;10715;48.546;9.896;2023-12-20T14:55:02;2.90;99.90
21115;DHT22;10715;48.546;9.896;2023-12-20T14:57:28;2.80;99.90
21115;DHT22;10715;48.546;9.896;2023-12-20T14:59:57;2.80;99.90
21115;DHT22;10715;48.546;9.896;2023-12-20T15:02:23;2.80;99.90
21115;DHT22;10715;48.546;9.896;2023-12-20T15:04:48;2.80;99.90
21115;DHT22;10715;48.546;9.896;2023-12-20T15:07:16;2.80;99.90
21115;DHT22;10715;48.546;9.896;2023-12-20T15:09:42;2.80;99.90
21115;DHT22;10715;48.546;9.896;2023-12-20T15:12:11;2.80;99.90
21115;DHT22;10715;48.546;9.896;2023-12-20T15:14:38;2.80;99.90
21115;DHT22;10715;48.546;9.896;2023-12-20T15:17:03;2.80;99.90
21115;DHT22;10715;48.546;9.896;2023-12-20T15:19:30;2.80;99.90
21115;DHT22;10715;48.546;9.896;2023-12-20T15:21:57;2.80;99.90
21115;DHT22;10715;48.546;9.896;2023-12-20T15:24:24;2.80;99.90
21115;DHT22;10715;48.546;9.896;2023-12-20T15:26:54;2.70;99.90
21115;DHT22;10715;48.546;9.896;2023-12-20T15:29:21;2.70;99.90
21115;DHT22;10715;48.546;9.896;2023-12-20T15:31:47;2.70;99.90
21115;DHT22;10715;48.546;9.896;2023-12-20T15:34:14;2.70;99.90
21115;DHT22;10715;48.546;9.896;2023-12-20T15:36:40;2.70;99.90
21115;DHT22;10715;48.546;9.896;2023-12-20T15:39:06;2.70;99.90
21115;DHT22;10715;48.546;9.896;2023-12-20T15:41:35;2.70;99.90
21115;DHT22;10715;48.546;9.896;2023-12-20T15:44:01;2.70;99.90
21115;DHT22;10715;48.546;9.896;2023-12-20T15:46:26;2.60;99.90